sensor_id;sensor_type;location;lat;lon;timestamp;temperature;humidity
11784;DHT22;5949;40.386;18.150;2022-08-14T00:00:43;22.60;99.90
11784;DHT22;5949;40.386;18.150;2022-08-14T00:03:18;22.70;99.90
11784;DHT22;5949;40.386;18.150;2022-08-14T00:05:47;22.50;99.90
11784;DHT22;5949;40.386;18.150;2022-08-14T00:08:15;22.70;99.90
11784;DHT22;5949;40.386;18.150;2022-08-14T00:10:43;22.60;99.90
11784;DHT22;5949;40.386;18.150;2022-08-14T00:13:11;22.50;99.90
11784;DHT22;5949;40.386;18.150;2022-08-14T00:15:42;22.40;99.90
11784;DHT22;5949;40.386;18.150;2022-08-14T00:18:12;22.50;99.90
11784;DHT22;5949;40.386;18.150;2022-08-14T00:20:41;22.60;99.90
11784;DHT22;5949;40.386;18.150;2022-08-14T00:23:12;22.50;99.90
11784;DHT22;5949;40.386;18.150;2022-08-14T00:25:40;22.50;99.90
11784;DHT22;5949;40.386;18.150;2022-08-14T00:28:10;22.60;99.90
11784;DHT22;5949;40.386;18.150;2022-08-14T00:30:38;22.40;99.90
11784;DHT22;5949;40.386;18.150;2022-08-14T00:33:06;22.30;99.90
11784;DHT22;5949;40.386;18.150;2022-08-14T00:35:34;22.20;99.90
11784;DHT22;5949;40.386;18.150;2022-08-14T00:38:01;22.20;99.90
11784;DHT22;5949;40.386;18.150;2022-08-14T00:40:30;22.30;99.90
11784;DHT22;5949;40.386;18.150;2022-08-14T00:42:58;22.30;99.90
11784;DHT22;5949;40.386;18.150;2022-08-14T00:45:25;22.20;99.90
11784;DHT22;5949;40.386;18.150;2022-08-14T00:47:53;22.10;99.90
11784;DHT22;5949;40.386;18.150;2022-08-14T00:50:21;22.10;99.90
11784;DHT22;5949;40.386;18.150;2022-08-14T00:52:50;22.10;99.90
11784;DHT22;5949;40.386;18.150;2022-08-14T00:55:19;22.10;99.90
11784;DHT22;5949;40.386;18.150;2022-08-14T00:57:49;22.20;99.90
11784;DHT22;5949;40.386;18.150;2022-08-14T01:00:38;22.30;99.90
11784;DHT22;5949;40.386;18.150;2022-08-14T01:03:06;22.40;99.90
11784;DHT22;5949;40.386;18.150;2022-08-14T01:05:34;22.50;99.90
11784;DHT22;5949;40.386;18.150;2022-08-14T01:08:02;22.80;99.90
11784;DHT22;5949;40.386;18.150;2022-08-14T01:10:30;23.00;99.90
11784;DHT22;5949;40.386;18.150;2022-08-14T01:13:18;22.90;99.90
11784;DHT22;5949;40.386;18.150;2022-08-14T01:15:48;22.80;99.90
11784;DHT22;5949;40.386;18.150;2022-08-14T01:18:16;22.80;99.90
11784;DHT22;5949;40.386;18.150;2022-08-14T01:21:01;22.90;99.90
11784;DHT22;5949;40.386;18.150;2022-08-14T01:23:41;23.00;99.90
11784;DHT22;5949;40.386;18.150;2022-08-14T01:26:10;22.80;99.90
11784;DHT22;5949;40.386;18.150;2022-08-14T01:28:38;23.00;99.90
11784;DHT22;5949;40.386;18.150;2022-08-14T01:31:08;23.20;99.90
11784;DHT22;5949;40.386;18.150;2022-08-14T01:33:38;23.20;99.90
11784;DHT22;5949;40.386;18.150;2022-08-14T01:36:10;23.10;99.90
11784;DHT22;5949;40.386;18.150;2022-08-14T01:38:41;23.00;99.90
11784;DHT22;5949;40.386;18.150;2022-08-14T01:41:12;22.80;99.90
11784;DHT22;5949;40.386;18.150;2022-08-14T01:43:46;22.70;99.90
11784;DHT22;5949;40.386;18.150;2022-08-14T01:46:15;22.80;99.90
11784;DHT22;5949;40.386;18.150;2022-08-14T01:48:43;22.70;99.90
11784;DHT22;5949;40.386;18.150;2022-08-14T01:51:13;22.60;99.90
11784;DHT22;5949;40.386;18.150;2022-08-14T01:53:45;22.90;99.90
11784;DHT22;5949;40.386;18.150;2022-08-14T01:56:15;22.90;99.90
11784;DHT22;5949;40.386;18.150;2022-08-14T01:58:44;22.80;99.90
11784;DHT22;5949;40.386;18.150;2022-08-14T02:01:15;22.60;99.90
11784;DHT22;5949;40.386;18.150;2022-08-14T02:03:43;22.70;99.90
11784;DHT22;5949;40.386;18.150;2022-08-14T02:06:12;22.40;99.90
11784;DHT22;5949;40.386;18.150;2022-08-14T02:08:42;22.60;99.90
11784;DHT22;5949;40.386;18.150;2022-08-14T02:11:10;22.80;99.90
11784;DHT22;5949;40.386;18.150;2022-08-14T02:13:50;23.00;99.90
11784;DHT22;5949;40.386;18.150;2022-08-14T02:16:19;23.10;99.90
11784;DHT22;5949;40.386;18.150;2022-08-14T02:18:49;23.00;99.90
11784;DHT22;5949;40.386;18.150;2022-08-14T02:21:16;22.80;99.90
11784;DHT22;5949;40.386;18.150;2022-08-14T02:23:49;22.70;99.90
11784;DHT22;5949;40.386;18.150;2022-08-14T02:26:19;22.60;99.90
11784;DHT22;5949;40.386;18.150;2022-08-14T02:28:48;22.40;99.90
11784;DHT22;5949;40.386;18.150;2022-08-14T02:31:17;22.50;99.90
11784;DHT22;5949;40.386;18.150;2022-08-14T02:33:45;22.60;99.90
11784;DHT22;5949;40.386;18.150;2022-08-14T02:36:14;22.30;99.90
11784;DHT22;5949;40.386;18.150;2022-08-14T02:38:42;22.30;99.90
11784;DHT22;5949;40.386;18.150;2022-08-14T02:41:12;22.20;99.90
11784;DHT22;5949;40.386;18.150;2022-08-14T02:43:40;22.50;99.90
11784;DHT22;5949;40.386;18.150;2022-08-14T02:46:09;22.40;99.90
11784;DHT22;5949;40.386;18.150;2022-08-14T02:48:38;22.20;99.90
11784;DHT22;5949;40.386;18.150;2022-08-14T02:51:08;22.10;99.90
11784;DHT22;5949;40.386;18.150;2022-08-14T02:53:37;22.00;99.90
11784;DHT22;5949;40.386;18.150;2022-08-14T02:56:11;22.20;99.90
11784;DHT22;5949;40.386;18.150;2022-08-14T02:58:42;22.20;99.90
11784;DHT22;5949;40.386;18.150;2022-08-14T03:01:12;22.10;99.90
11784;DHT22;5949;40.386;18.150;2022-08-14T03:03:41;22.10;99.90
11784;DHT22;5949;40.386;18.150;2022-08-14T03:06:09;22.10;99.90
11784;DHT22;5949;40.386;18.150;2022-08-14T03:08:38;22.10;99.90
11784;DHT22;5949;40.386;18.150;2022-08-14T03:11:08;21.90;99.90
11784;DHT22;5949;40.386;18.150;2022-08-14T03:13:39;22.10;99.90
11784;DHT22;5949;40.386;18.150;2022-08-14T03:16:09;22.10;99.90
11784;DHT22;5949;40.386;18.150;2022-08-14T03:18:38;22.00;99.90
11784;DHT22;5949;40.386;18.150;2022-08-14T03:21:09;21.90;99.90
11784;DHT22;5949;40.386;18.150;2022-08-14T03:23:38;21.80;99.90
11784;DHT22;5949;40.386;18.150;2022-08-14T03:26:07;21.80;99.90
11784;DHT22;5949;40.386;18.150;2022-08-14T03:28:37;21.70;99.90
11784;DHT22;5949;40.386;18.150;2022-08-14T03:31:07;21.60;99.90
11784;DHT22;5949;40.386;18.150;2022-08-14T03:33:36;21.60;99.90
11784;DHT22;5949;40.386;18.150;2022-08-14T03:36:06;21.70;99.90
11784;DHT22;5949;40.386;18.150;2022-08-14T03:38:37;21.60;99.90
11784;DHT22;5949;40.386;18.150;2022-08-14T03:41:08;21.50;99.90
11784;DHT22;5949;40.386;18.150;2022-08-14T03:43:41;21.50;99.90
11784;DHT22;5949;40.386;18.150;2022-08-14T03:46:09;21.70;99.90
11784;DHT22;5949;40.386;18.150;2022-08-14T03:48:38;21.50;99.90
11784;DHT22;5949;40.386;18.150;2022-08-14T03:51:07;21.50;99.90
11784;DHT22;5949;40.386;18.150;2022-08-14T03:53:35;21.50;99.90
11784;DHT22;5949;40.386;18.150;2022-08-14T03:56:04;21.50;99.90
11784;DHT22;5949;40.386;18.150;2022-08-14T03:58:32;21.60;99.90
11784;DHT22;5949;40.386;18.150;2022-08-14T04:01:02;21.60;99.90
11784;DHT22;5949;40.386;18.150;2022-08-14T04:03:30;21.80;99.90
11784;DHT22;5949;40.386;18.150;2022-08-14T04:05:57;21.80;99.90
11784;DHT22;5949;40.386;18.150;2022-08-14T04:08:25;21.80;99.90
11784;DHT22;5949;40.386;18.150;2022-08-14T04:10:54;22.00;99.90
11784;DHT22;5949;40.386;18.150;2022-08-14T04:13:22;22.10;99.90
11784;DHT22;5949;40.386;18.150;2022-08-14T04:15:49;22.00;99.90
11784;DHT22;5949;40.386;18.150;2022-08-14T04:18:18;21.90;99.90
11784;DHT22;5949;40.386;18.150;2022-08-14T04:20:46;22.00;99.90
11784;DHT22;5949;40.386;18.150;2022-08-14T04:23:13;21.90;99.90
11784;DHT22;5949;40.386;18.150;2022-08-14T04:25:42;22.10;99.90
11784;DHT22;5949;40.386;18.150;2022-08-14T04:28:10;22.30;99.90
11784;DHT22;5949;40.386;18.150;2022-08-14T04:30:38;22.20;99.90
11784;DHT22;5949;40.386;18.150;2022-08-14T04:33:06;22.20;99.90
11784;DHT22;5949;40.386;18.150;2022-08-14T04:35:35;22.30;99.90
11784;DHT22;5949;40.386;18.150;2022-08-14T04:38:05;22.10;99.90
11784;DHT22;5949;40.386;18.150;2022-08-14T04:40:50;22.00;99.90
11784;DHT22;5949;40.386;18.150;2022-08-14T04:43:34;21.90;99.90
11784;DHT22;5949;40.386;18.150;2022-08-14T04:46:02;21.90;99.90
11784;DHT22;5949;40.386;18.150;2022-08-14T04:48:30;21.90;99.90
11784;DHT22;5949;40.386;18.150;2022-08-14T04:51:01;22.00;99.90
11784;DHT22;5949;40.386;18.150;2022-08-14T04:53:29;22.00;99.90
11784;DHT22;5949;40.386;18.150;2022-08-14T04:55:56;22.00;99.90
11784;DHT22;5949;40.386;18.150;2022-08-14T04:58:27;21.80;99.90
11784;DHT22;5949;40.386;18.150;2022-08-14T05:00:56;21.80;99.90
11784;DHT22;5949;40.386;18.150;2022-08-14T05:03:27;21.90;99.90
11784;DHT22;5949;40.386;18.150;2022-08-14T05:05:57;21.80;99.90
11784;DHT22;5949;40.386;18.150;2022-08-14T05:08:26;21.90;99.90
11784;DHT22;5949;40.386;18.150;2022-08-14T05:10:58;21.90;99.90
11784;DHT22;5949;40.386;18.150;2022-08-14T05:13:28;22.00;99.90
11784;DHT22;5949;40.386;18.150;2022-08-14T05:15:56;22.10;99.90
11784;DHT22;5949;40.386;18.150;2022-08-14T05:18:26;22.20;99.90
11784;DHT22;5949;40.386;18.150;2022-08-14T05:20:58;22.40;99.90
11784;DHT22;5949;40.386;18.150;2022-08-14T05:23:29;22.50;99.90
11784;DHT22;5949;40.386;18.150;2022-08-14T05:25:58;22.40;99.90
11784;DHT22;5949;40.386;18.150;2022-08-14T05:28:28;22.30;99.90
11784;DHT22;5949;40.386;18.150;2022-08-14T05:30:57;22.30;99.90
11784;DHT22;5949;40.386;18.150;2022-08-14T05:33:27;22.40;99.90
11784;DHT22;5949;40.386;18.150;2022-08-14T05:35:57;22.80;99.90
11784;DHT22;5949;40.386;18.150;2022-08-14T05:38:28;23.10;99.90
11784;DHT22;5949;40.386;18.150;2022-08-14T05:41:03;23.50;99.90
11784;DHT22;5949;40.386;18.150;2022-08-14T05:43:31;23.70;99.90
11784;DHT22;5949;40.386;18.150;2022-08-14T05:45:59;23.90;99.90
11784;DHT22;5949;40.386;18.150;2022-08-14T05:48:28;24.00;99.90
11784;DHT22;5949;40.386;18.150;2022-08-14T05:50:56;24.10;99.90
11784;DHT22;5949;40.386;18.150;2022-08-14T05:53:25;24.60;99.90
11784;DHT22;5949;40.386;18.150;2022-08-14T05:55:54;24.80;99.90
11784;DHT22;5949;40.386;18.150;2022-08-14T05:58:24;25.10;99.90
11784;DHT22;5949;40.386;18.150;2022-08-14T06:00:52;25.10;99.90
11784;DHT22;5949;40.386;18.150;2022-08-14T06:03:20;25.40;99.90
11784;DHT22;5949;40.386;18.150;2022-08-14T06:05:50;25.60;99.90
11784;DHT22;5949;40.386;18.150;2022-08-14T06:08:20;25.40;99.90
11784;DHT22;5949;40.386;18.150;2022-08-14T06:10:48;24.60;99.90
11784;DHT22;5949;40.386;18.150;2022-08-14T06:13:18;24.40;99.90
11784;DHT22;5949;40.386;18.150;2022-08-14T06:15:47;23.90;99.90
11784;DHT22;5949;40.386;18.150;2022-08-14T06:18:16;23.70;99.90
11784;DHT22;5949;40.386;18.150;2022-08-14T06:20:43;23.70;99.90
11784;DHT22;5949;40.386;18.150;2022-08-14T06:23:11;23.60;99.90
11784;DHT22;5949;40.386;18.150;2022-08-14T06:25:38;23.50;99.90
11784;DHT22;5949;40.386;18.150;2022-08-14T06:28:06;23.40;99.90
11784;DHT22;5949;40.386;18.150;2022-08-14T06:30:35;23.60;99.90
11784;DHT22;5949;40.386;18.150;2022-08-14T06:33:03;23.60;99.90
11784;DHT22;5949;40.386;18.150;2022-08-14T06:35:31;23.40;99.90
11784;DHT22;5949;40.386;18.150;2022-08-14T06:37:59;23.30;99.90
11784;DHT22;5949;40.386;18.150;2022-08-14T06:40:28;23.40;99.90
11784;DHT22;5949;40.386;18.150;2022-08-14T06:42:57;23.30;99.90
11784;DHT22;5949;40.386;18.150;2022-08-14T06:45:25;23.30;99.90
11784;DHT22;5949;40.386;18.150;2022-08-14T06:47:54;23.20;99.90
11784;DHT22;5949;40.386;18.150;2022-08-14T06:50:22;23.30;99.90
11784;DHT22;5949;40.386;18.150;2022-08-14T06:52:52;23.40;99.90
11784;DHT22;5949;40.386;18.150;2022-08-14T06:55:19;23.40;99.90
11784;DHT22;5949;40.386;18.150;2022-08-14T06:57:49;23.40;99.90
11784;DHT22;5949;40.386;18.150;2022-08-14T07:00:20;23.60;99.90
11784;DHT22;5949;40.386;18.150;2022-08-14T07:02:48;23.50;99.90
11784;DHT22;5949;40.386;18.150;2022-08-14T07:05:35;23.60;99.90
11784;DHT22;5949;40.386;18.150;2022-08-14T07:08:13;23.80;99.90
11784;DHT22;5949;40.386;18.150;2022-08-14T07:10:43;24.30;99.90
11784;DHT22;5949;40.386;18.150;2022-08-14T07:13:11;24.90;99.90
11784;DHT22;5949;40.386;18.150;2022-08-14T07:15:40;24.50;99.90
11784;DHT22;5949;40.386;18.150;2022-08-14T07:18:10;24.50;99.90
11784;DHT22;5949;40.386;18.150;2022-08-14T07:20:40;24.70;99.90
11784;DHT22;5949;40.386;18.150;2022-08-14T07:23:09;24.90;99.90
11784;DHT22;5949;40.386;18.150;2022-08-14T07:25:37;24.70;99.90
11784;DHT22;5949;40.386;18.150;2022-08-14T07:28:09;24.50;99.90
11784;DHT22;5949;40.386;18.150;2022-08-14T07:30:38;24.30;99.90
11784;DHT22;5949;40.386;18.150;2022-08-14T07:33:05;24.30;99.90
11784;DHT22;5949;40.386;18.150;2022-08-14T07:35:35;24.30;99.90
11784;DHT22;5949;40.386;18.150;2022-08-14T07:38:04;24.20;99.90
11784;DHT22;5949;40.386;18.150;2022-08-14T07:40:33;24.10;99.90
11784;DHT22;5949;40.386;18.150;2022-08-14T07:43:01;24.10;99.90
11784;DHT22;5949;40.386;18.150;2022-08-14T07:45:28;24.20;99.90
11784;DHT22;5949;40.386;18.150;2022-08-14T07:47:56;24.10;99.90
11784;DHT22;5949;40.386;18.150;2022-08-14T07:50:23;24.50;99.90
11784;DHT22;5949;40.386;18.150;2022-08-14T07:52:51;24.80;99.90
11784;DHT22;5949;40.386;18.150;2022-08-14T07:55:20;24.60;99.90
11784;DHT22;5949;40.386;18.150;2022-08-14T07:57:47;24.70;99.90
11784;DHT22;5949;40.386;18.150;2022-08-14T08:00:18;24.70;99.90
11784;DHT22;5949;40.386;18.150;2022-08-14T08:02:49;25.00;99.90
11784;DHT22;5949;40.386;18.150;2022-08-14T08:05:18;24.80;99.90
11784;DHT22;5949;40.386;18.150;2022-08-14T08:07:46;24.80;99.90
11784;DHT22;5949;40.386;18.150;2022-08-14T08:10:17;25.10;99.90
11784;DHT22;5949;40.386;18.150;2022-08-14T08:13:04;25.20;99.90
11784;DHT22;5949;40.386;18.150;2022-08-14T08:15:35;26.10;99.90
11784;DHT22;5949;40.386;18.150;2022-08-14T08:18:03;26.10;99.90
11784;DHT22;5949;40.386;18.150;2022-08-14T08:20:32;26.10;99.90
11784;DHT22;5949;40.386;18.150;2022-08-14T08:23:01;25.80;99.90
11784;DHT22;5949;40.386;18.150;2022-08-14T08:25:30;25.40;99.90
11784;DHT22;5949;40.386;18.150;2022-08-14T08:27:59;25.20;99.90
11784;DHT22;5949;40.386;18.150;2022-08-14T08:30:31;25.10;99.90
11784;DHT22;5949;40.386;18.150;2022-08-14T08:33:00;25.40;99.90
11784;DHT22;5949;40.386;18.150;2022-08-14T08:35:30;25.60;99.90
11784;DHT22;5949;40.386;18.150;2022-08-14T08:38:03;25.60;99.90
11784;DHT22;5949;40.386;18.150;2022-08-14T08:40:34;25.40;99.90
11784;DHT22;5949;40.386;18.150;2022-08-14T08:43:03;25.40;99.90
11784;DHT22;5949;40.386;18.150;2022-08-14T08:45:35;25.80;99.90
11784;DHT22;5949;40.386;18.150;2022-08-14T08:48:03;25.70;99.90
11784;DHT22;5949;40.386;18.150;2022-08-14T08:50:33;25.70;99.90
11784;DHT22;5949;40.386;18.150;2022-08-14T08:53:03;25.50;99.90
11784;DHT22;5949;40.386;18.150;2022-08-14T08:55:33;25.40;99.90
11784;DHT22;5949;40.386;18.150;2022-08-14T08:58:02;25.50;99.90
11784;DHT22;5949;40.386;18.150;2022-08-14T09:00:33;25.90;99.90
11784;DHT22;5949;40.386;18.150;2022-08-14T09:03:04;26.20;99.90
11784;DHT22;5949;40.386;18.150;2022-08-14T09:05:33;26.60;99.90
11784;DHT22;5949;40.386;18.150;2022-08-14T09:08:15;26.90;99.90
11784;DHT22;5949;40.386;18.150;2022-08-14T09:10:43;26.40;99.90
11784;DHT22;5949;40.386;18.150;2022-08-14T09:13:12;26.00;99.90
11784;DHT22;5949;40.386;18.150;2022-08-14T09:15:43;26.10;99.90
11784;DHT22;5949;40.386;18.150;2022-08-14T09:18:12;25.90;99.90
11784;DHT22;5949;40.386;18.150;2022-08-14T09:20:42;25.80;99.90
11784;DHT22;5949;40.386;18.150;2022-08-14T09:23:11;25.50;99.90
11784;DHT22;5949;40.386;18.150;2022-08-14T09:25:42;25.40;99.90
11784;DHT22;5949;40.386;18.150;2022-08-14T09:28:11;25.20;99.90
11784;DHT22;5949;40.386;18.150;2022-08-14T09:30:43;25.30;99.90
11784;DHT22;5949;40.386;18.150;2022-08-14T09:33:40;25.00;99.90
11784;DHT22;5949;40.386;18.150;2022-08-14T09:36:24;24.80;99.90
11784;DHT22;5949;40.386;18.150;2022-08-14T09:39:03;24.90;99.90
11784;DHT22;5949;40.386;18.150;2022-08-14T09:41:46;25.00;99.90
11784;DHT22;5949;40.386;18.150;2022-08-14T09:44:29;25.20;99.90
11784;DHT22;5949;40.386;18.150;2022-08-14T09:47:01;25.50;99.90
11784;DHT22;5949;40.386;18.150;2022-08-14T09:49:30;25.30;99.90
11784;DHT22;5949;40.386;18.150;2022-08-14T09:52:06;25.50;99.90
11784;DHT22;5949;40.386;18.150;2022-08-14T09:54:37;25.70;99.90
11784;DHT22;5949;40.386;18.150;2022-08-14T09:57:05;25.70;99.90
11784;DHT22;5949;40.386;18.150;2022-08-14T09:59:42;25.50;99.90
11784;DHT22;5949;40.386;18.150;2022-08-14T10:02:24;25.30;99.90
11784;DHT22;5949;40.386;18.150;2022-08-14T10:04:59;25.20;99.90
11784;DHT22;5949;40.386;18.150;2022-08-14T10:07:31;25.40;99.90
11784;DHT22;5949;40.386;18.150;2022-08-14T10:09:59;25.50;99.90
11784;DHT22;5949;40.386;18.150;2022-08-14T10:12:43;25.20;99.90
11784;DHT22;5949;40.386;18.150;2022-08-14T10:15:16;25.40;99.90
11784;DHT22;5949;40.386;18.150;2022-08-14T10:17:46;25.50;99.90
11784;DHT22;5949;40.386;18.150;2022-08-14T10:20:15;25.40;99.90
11784;DHT22;5949;40.386;18.150;2022-08-14T10:22:46;25.50;99.90
11784;DHT22;5949;40.386;18.150;2022-08-14T10:25:15;25.50;99.90
11784;DHT22;5949;40.386;18.150;2022-08-14T10:27:44;25.60;99.90
11784;DHT22;5949;40.386;18.150;2022-08-14T10:30:16;25.40;99.90
11784;DHT22;5949;40.386;18.150;2022-08-14T10:32:47;25.70;99.90
11784;DHT22;5949;40.386;18.150;2022-08-14T10:35:15;25.40;99.90
11784;DHT22;5949;40.386;18.150;2022-08-14T10:37:46;25.60;99.90
11784;DHT22;5949;40.386;18.150;2022-08-14T10:40:15;26.30;99.90
11784;DHT22;5949;40.386;18.150;2022-08-14T10:42:51;26.40;99.90
11784;DHT22;5949;40.386;18.150;2022-08-14T10:45:20;26.20;99.90
11784;DHT22;5949;40.386;18.150;2022-08-14T10:47:50;26.40;99.90
11784;DHT22;5949;40.386;18.150;2022-08-14T10:50:28;26.50;99.90
11784;DHT22;5949;40.386;18.150;2022-08-14T10:52:57;26.70;99.90
11784;DHT22;5949;40.386;18.150;2022-08-14T10:55:31;26.40;99.90
11784;DHT22;5949;40.386;18.150;2022-08-14T10:57:59;26.20;99.90
11784;DHT22;5949;40.386;18.150;2022-08-14T11:00:27;26.10;99.90
11784;DHT22;5949;40.386;18.150;2022-08-14T11:03:00;26.10;99.90
11784;DHT22;5949;40.386;18.150;2022-08-14T11:05:38;26.40;99.90
11784;DHT22;5949;40.386;18.150;2022-08-14T11:08:07;26.40;99.90
11784;DHT22;5949;40.386;18.150;2022-08-14T11:10:41;26.60;99.90
11784;DHT22;5949;40.386;18.150;2022-08-14T11:13:09;26.30;99.90
11784;DHT22;5949;40.386;18.150;2022-08-14T11:15:41;26.40;99.90
11784;DHT22;5949;40.386;18.150;2022-08-14T11:18:12;26.40;99.90
11784;DHT22;5949;40.386;18.150;2022-08-14T11:20:47;26.40;99.90
11784;DHT22;5949;40.386;18.150;2022-08-14T11:23:15;26.60;99.90
11784;DHT22;5949;40.386;18.150;2022-08-14T11:25:46;26.70;99.90
11784;DHT22;5949;40.386;18.150;2022-08-14T11:28:15;26.90;99.90
11784;DHT22;5949;40.386;18.150;2022-08-14T11:30:43;27.00;99.90
11784;DHT22;5949;40.386;18.150;2022-08-14T11:33:12;27.30;99.90
11784;DHT22;5949;40.386;18.150;2022-08-14T11:35:40;27.20;99.90
11784;DHT22;5949;40.386;18.150;2022-08-14T11:38:08;26.70;99.90
11784;DHT22;5949;40.386;18.150;2022-08-14T11:40:38;26.50;99.90
11784;DHT22;5949;40.386;18.150;2022-08-14T11:43:07;26.60;99.90
11784;DHT22;5949;40.386;18.150;2022-08-14T11:45:36;26.90;99.90
11784;DHT22;5949;40.386;18.150;2022-08-14T11:48:15;26.80;99.90
11784;DHT22;5949;40.386;18.150;2022-08-14T11:50:44;26.70;99.90
11784;DHT22;5949;40.386;18.150;2022-08-14T11:53:20;26.60;99.90
11784;DHT22;5949;40.386;18.150;2022-08-14T11:55:54;26.60;99.90
11784;DHT22;5949;40.386;18.150;2022-08-14T11:58:25;26.80;99.90
11784;DHT22;5949;40.386;18.150;2022-08-14T12:00:55;26.60;99.90
11784;DHT22;5949;40.386;18.150;2022-08-14T12:03:36;26.50;99.90
11784;DHT22;5949;40.386;18.150;2022-08-14T12:06:05;26.50;99.90
11784;DHT22;5949;40.386;18.150;2022-08-14T12:08:34;26.40;99.90
11784;DHT22;5949;40.386;18.150;2022-08-14T12:11:02;26.40;99.90
11784;DHT22;5949;40.386;18.150;2022-08-14T12:13:30;26.30;99.90
11784;DHT22;5949;40.386;18.150;2022-08-14T12:16:02;26.30;99.90
11784;DHT22;5949;40.386;18.150;2022-08-14T12:18:33;26.30;99.90
11784;DHT22;5949;40.386;18.150;2022-08-14T12:21:13;26.40;99.90
11784;DHT22;5949;40.386;18.150;2022-08-14T12:23:41;26.40;99.90
11784;DHT22;5949;40.386;18.150;2022-08-14T12:26:12;26.10;99.90
11784;DHT22;5949;40.386;18.150;2022-08-14T12:28:41;26.20;99.90
11784;DHT22;5949;40.386;18.150;2022-08-14T12:31:13;26.30;99.90
11784;DHT22;5949;40.386;18.150;2022-08-14T12:33:41;26.50;99.90
11784;DHT22;5949;40.386;18.150;2022-08-14T12:36:20;26.50;99.90
11784;DHT22;5949;40.386;18.150;2022-08-14T12:38:48;26.50;99.90
11784;DHT22;5949;40.386;18.150;2022-08-14T12:41:19;26.50;99.90
11784;DHT22;5949;40.386;18.150;2022-08-14T12:43:49;26.80;99.90
11784;DHT22;5949;40.386;18.150;2022-08-14T12:46:26;26.90;99.90
11784;DHT22;5949;40.386;18.150;2022-08-14T12:48:54;26.80;99.90
11784;DHT22;5949;40.386;18.150;2022-08-14T12:51:25;26.80;99.90
11784;DHT22;5949;40.386;18.150;2022-08-14T12:53:54;26.90;99.90
11784;DHT22;5949;40.386;18.150;2022-08-14T12:56:23;26.80;99.90
11784;DHT22;5949;40.386;18.150;2022-08-14T12:58:53;26.80;99.90
11784;DHT22;5949;40.386;18.150;2022-08-14T13:01:22;26.70;99.90
11784;DHT22;5949;40.386;18.150;2022-08-14T13:04:00;26.90;99.90
11784;DHT22;5949;40.386;18.150;2022-08-14T13:06:33;27.00;99.90
11784;DHT22;5949;40.386;18.150;2022-08-14T13:09:01;27.20;99.90
11784;DHT22;5949;40.386;18.150;2022-08-14T13:11:34;27.40;99.90
11784;DHT22;5949;40.386;18.150;2022-08-14T13:14:03;27.60;99.90
11784;DHT22;5949;40.386;18.150;2022-08-14T13:16:30;27.50;99.90
11784;DHT22;5949;40.386;18.150;2022-08-14T13:18:59;27.50;99.90
11784;DHT22;5949;40.386;18.150;2022-08-14T13:21:27;27.00;99.90
11784;DHT22;5949;40.386;18.150;2022-08-14T13:23:59;27.30;99.90
11784;DHT22;5949;40.386;18.150;2022-08-14T13:26:29;27.10;99.90
11784;DHT22;5949;40.386;18.150;2022-08-14T13:28:59;27.10;99.90
11784;DHT22;5949;40.386;18.150;2022-08-14T13:31:29;27.20;99.90
11784;DHT22;5949;40.386;18.150;2022-08-14T13:33:59;27.10;99.90
11784;DHT22;5949;40.386;18.150;2022-08-14T13:36:28;26.90;99.90
11784;DHT22;5949;40.386;18.150;2022-08-14T13:38:58;26.90;99.90
11784;DHT22;5949;40.386;18.150;2022-08-14T13:41:26;27.20;99.90
11784;DHT22;5949;40.386;18.150;2022-08-14T13:43:54;27.10;99.90
11784;DHT22;5949;40.386;18.150;2022-08-14T13:46:22;27.20;99.90
11784;DHT22;5949;40.386;18.150;2022-08-14T13:48:50;27.10;99.90
11784;DHT22;5949;40.386;18.150;2022-08-14T13:51:18;27.40;99.90
11784;DHT22;5949;40.386;18.150;2022-08-14T13:53:56;27.40;99.90
11784;DHT22;5949;40.386;18.150;2022-08-14T13:56:27;27.10;99.90
11784;DHT22;5949;40.386;18.150;2022-08-14T13:58:57;27.10;99.90
11784;DHT22;5949;40.386;18.150;2022-08-14T14:01:26;26.90;99.90
11784;DHT22;5949;40.386;18.150;2022-08-14T14:03:55;27.10;99.90
11784;DHT22;5949;40.386;18.150;2022-08-14T14:06:24;27.10;99.90
11784;DHT22;5949;40.386;18.150;2022-08-14T14:08:54;27.00;99.90
11784;DHT22;5949;40.386;18.150;2022-08-14T14:11:23;27.00;99.90
11784;DHT22;5949;40.386;18.150;2022-08-14T14:13:52;27.00;99.90
11784;DHT22;5949;40.386;18.150;2022-08-14T14:16:20;26.90;99.90
11784;DHT22;5949;40.386;18.150;2022-08-14T14:18:49;27.00;99.90
11784;DHT22;5949;40.386;18.150;2022-08-14T14:21:22;26.90;99.90
11784;DHT22;5949;40.386;18.150;2022-08-14T14:23:52;26.90;99.90
11784;DHT22;5949;40.386;18.150;2022-08-14T14:26:20;26.90;99.90
11784;DHT22;5949;40.386;18.150;2022-08-14T14:28:53;27.10;99.90
11784;DHT22;5949;40.386;18.150;2022-08-14T14:31:22;27.10;99.90
11784;DHT22;5949;40.386;18.150;2022-08-14T14:33:51;27.00;99.90
11784;DHT22;5949;40.386;18.150;2022-08-14T14:36:23;26.90;99.90
11784;DHT22;5949;40.386;18.150;2022-08-14T14:38:53;26.80;99.90
11784;DHT22;5949;40.386;18.150;2022-08-14T14:41:23;26.90;99.90
11784;DHT22;5949;40.386;18.150;2022-08-14T14:43:53;26.90;99.90
11784;DHT22;5949;40.386;18.150;2022-08-14T14:46:23;26.70;99.90
11784;DHT22;5949;40.386;18.150;2022-08-14T14:48:51;26.90;99.90
11784;DHT22;5949;40.386;18.150;2022-08-14T14:51:18;27.00;99.90
11784;DHT22;5949;40.386;18.150;2022-08-14T14:53:46;26.70;99.90
11784;DHT22;5949;40.386;18.150;2022-08-14T14:56:14;26.50;99.90
11784;DHT22;5949;40.386;18.150;2022-08-14T14:58:42;26.80;99.90
11784;DHT22;5949;40.386;18.150;2022-08-14T15:01:12;26.90;99.90
11784;DHT22;5949;40.386;18.150;2022-08-14T15:03:40;26.60;99.90
11784;DHT22;5949;40.386;18.150;2022-08-14T15:06:10;26.40;99.90
11784;DHT22;5949;40.386;18.150;2022-08-14T15:08:38;26.50;99.90
11784;DHT22;5949;40.386;18.150;2022-08-14T15:11:06;26.40;99.90
11784;DHT22;5949;40.386;18.150;2022-08-14T15:13:34;26.50;99.90
11784;DHT22;5949;40.386;18.150;2022-08-14T15:16:03;26.40;99.90
11784;DHT22;5949;40.386;18.150;2022-08-14T15:18:32;26.20;99.90
11784;DHT22;5949;40.386;18.150;2022-08-14T15:21:01;26.10;99.90
11784;DHT22;5949;40.386;18.150;2022-08-14T15:23:29;26.20;99.90
11784;DHT22;5949;40.386;18.150;2022-08-14T15:25:57;26.30;99.90
11784;DHT22;5949;40.386;18.150;2022-08-14T15:28:25;26.30;99.90
11784;DHT22;5949;40.386;18.150;2022-08-14T15:30:53;26.00;99.90
11784;DHT22;5949;40.386;18.150;2022-08-14T15:33:21;25.80;99.90
11784;DHT22;5949;40.386;18.150;2022-08-14T15:36:04;25.80;99.90
11784;DHT22;5949;40.386;18.150;2022-08-14T15:38:32;25.90;99.90
11784;DHT22;5949;40.386;18.150;2022-08-14T15:41:00;26.00;99.90
11784;DHT22;5949;40.386;18.150;2022-08-14T15:43:31;25.80;99.90
11784;DHT22;5949;40.386;18.150;2022-08-14T15:45:59;25.80;99.90
11784;DHT22;5949;40.386;18.150;2022-08-14T15:48:27;25.80;99.90